INFOJET
Metar trends

METAR/TAF(Classic format)(METAR/TAF Trend/History displayed directly below)
(enter CONUS apts starting with a K(eg. KMCC), enter Alaska/Hawaii apts starting with a P(eg. PANC))

Get Apt METAR code for recent obs


Get Apt METAR code for recent obs + Direct NWS Link (if METAR history doesn't display (which is often)


FAA Surface Weather Observation Stations ASOS/AWOS Readings with Map


NOAA ASOS Recent Observation History (click to select airport code)






TVL METAR history (last 5 updates)

FTUS45 KREV 150304 AAB
 TAFTVL
 TAF AMD
 KTVL 150304Z 1503/1524 18008KT 1SM -SN BR BKN008 OVC014
      FM151100 14005KT 5SM BR SCT015 BKN020
      FM151500 VRB05KT P6SM SCT200=

Recent Observations KTVL 150353Z AUTO 19011G19KT 3SM -SN OVC034 M02/M06 A2984 AO2 SNB10 SLP105 P0000 T10171056 METAR KTVL 150345Z AUTO 18010G17KT 9SM FEW029 OVC038 M01/M06 A2983 METAR KTVL 150340Z AUTO 19008KT 10SM FEW029 OVC038 M01/M06 A2984 METAR KTVL 150335Z AUTO 19010KT 9SM FEW027 OVC036 M01/M06 A2983 METAR KTVL 150330Z AUTO 18006KT 6SM -SN FEW027 OVC036 M01/M06 A2983




AvnWthrCntr_BCAWS

ADDS - METARS form results

Aviation Digital Data Service (ADDS)

Output produced by METARs form (0358 UTC 15 December 2019)
found at http://bcaws.aviationweather.gov/metar/data/
 
KTVL 150356Z AUTO 19009KT 1 3/4SM -SN BKN029 OVC039 M02/M05 A2983 RMK AO2 P0000 T10171050
KTVL 150353Z AUTO 19011G19KT 3SM -SN OVC034 M02/M06 A2984 RMK AO2 SNB10 SLP105 P0000 T10171056
KTVL 150329Z AUTO VRB04KT 5SM -SN FEW027 OVC036 M01/M06 A2983 RMK AO2 SNB10 P0000 T10111056
KTVL 150321Z AUTO 21005G20KT 2 1/2SM -SN FEW027 BKN034 OVC095 M01/M06 A2983 RMK AO2 SNB10 P0000 T10111056
KTVL 150253Z AUTO 18010KT 10SM FEW037 SCT060 OVC100 M01/M06 A2984 RMK AO2 SLP101 T10061061 58018
KTVL 150153Z AUTO 20010KT 10SM SCT034 BKN044 M01/M06 A2986 RMK AO2 SLP108 T10061061
KTVL 150053Z AUTO 21005KT 10SM BKN039 00/M06 A2989 RMK AO2 SLP117 T00001056
KTVL 142353Z AUTO 19007KT 10SM SCT045 SCT055 01/M07 A2990 RMK AO2 SLP119 T00111067 10033 20011 56008
KTVL 142253Z AUTO 20006KT 10SM BKN041 02/M06 A2990 RMK AO2 SLP116 T00221061
KTVL 150304Z 1503/1524 18008KT 1SM -SN BR BKN008 OVC014 
     FM151100 14005KT 5SM BR SCT015 BKN020 
     FM151500 VRB05KT P6SM SCT200
       




5 min APT wthr

CWSU Observations






RELOAD current METAR trend





METAR Numeric Codes (usually listed after RMK)

1xxxxx___6-hr maximum temp(2nd digit=0 is positive, 1 is negative)(eg. 10405 = +40.5 degrees Celsius)

2xxxxx___6-hr minimum temp (eg. 21337 = -33.7 degrees Celsius)

4/xxx___Total snow depth in inches (eg. 4/020 = snow depth of 20 inches on ground)

4xxxxxxxx___24-hr maximum/minimum temperatures, 2nd and sixth digits equal 0 for positive and 1 for negative (eg. 401551095 = 24-hr maximum temp of +15.5 degrees Celsius and a 24-hr minimum temp of -9.5 degrees Celsius)

5xxxx___3 hour pressure tendency. The second digit gives the tendency/trend: 0–3 is rising, 4 is steady and 5–8 is falling , the last 3 digits give the pressure change in tenths of a millibar in the last 3 hours. (eg 50009 indicates a rising pressure tendency/trend of 0.9 millibars.)

6xxxx___3 or 6 hour precipitation amount. The last 4 digits are the inches of rain in hundredths. (eg. 60200 = 2 inches of rain)

7xxxx___24-hour precipitation amount. The last 4 digits are the inches of rain in hundredths. (eg. 70500 = 5 inches of rain)

8/xxx___Cloud cover using WMO code. Three digit code follows the /. Lower numbers are for clearer skies, high numbers are for overcast. (I have not seen this in the NorCal airport METARs yet).

98xxx___Duration of sunshine in minutes. The last three digits after 98 are minutes. (eg. 98120 = 120 minutes of sunshine)

931xxx___Snowfall in the last 6-hours. The last three digits display snowfall in inches and tenths. (eg. 931515 = 51.5 inches of snowfall)

933xxx___Liquid water equivalent of the snow (SWE). The last three digits display liquid water equivalent of snow in inches and tenths (eg. 933055 = 5.5 inches of liquid water in snow)


Other METAR codes
SLP155 = current barometric pressure extrapolated to sea level (SLP155 equals 1015.5 hPa)

Pxxxx = liquid-equivalent precipitation accumulated during the last hour to hundredths of inches (P0050 = .5 inch of rain in the past hour)

Txxxxxxxx is the current Temperature and Dew point. The first 4 digits are temperature. The second 4 digits are Dew Point. The first digit of each group is either 0 for above zero Celsius or 1 for below zero Celsius. (eq. T00251015 = Temp +2.5C, Dew Pt -1.5C)







KSAC





KSMF





KMHR





KMCC





KEDU





KBLU





KTRK





KTVL





KRNO





KCEC





KPDX





KSEA





William R Fairchild International (Port Angeles, WA Intl Apt) (KCLM)